createdAt,value
2022-09-16T00:01:13.467Z,98999.72
2022-09-16T00:03:41.724Z,99000.22
2022-09-16T00:06:20.433Z,98996.72
2022-09-16T00:08:49.201Z,98999.88
2022-09-16T00:11:17.398Z,98995.84
2022-09-16T00:13:45.278Z,98999.09
2022-09-16T00:16:18.056Z,99010.31
2022-09-16T00:18:45.445Z,99018.19
2022-09-16T00:21:13.357Z,99021.88
2022-09-16T00:23:40.656Z,99014.09
2022-09-16T00:26:08.491Z,99001.63
2022-09-16T00:28:36.024Z,99001.38
2022-09-16T00:31:04.078Z,99002.22
2022-09-16T00:33:31.824Z,99011.16
2022-09-16T00:36:19.677Z,99018.47
2022-09-16T00:38:51.178Z,99021.12
2022-09-16T00:41:22.249Z,99026.31
2022-09-16T00:43:58.765Z,99029.91
2022-09-16T00:46:33.488Z,99037.28
2022-09-16T00:49:03.763Z,99035.75
2022-09-16T00:51:31.497Z,99057.06
2022-09-16T00:54:03.166Z,99053.19
2022-09-16T00:56:34.874Z,99040.00
2022-09-16T00:59:09.809Z,99038.53
2022-09-16T01:01:38.131Z,99021.44
2022-09-16T01:04:45.402Z,99029.84
2022-09-16T01:07:13.712Z,99012.25
2022-09-16T01:09:41.773Z,99022.16
2022-09-16T01:12:09.077Z,99020.97
2022-09-16T01:14:54.964Z,99032.81
2022-09-16T01:17:40.205Z,99039.09
2022-09-16T01:20:38.664Z,99045.22
2022-09-16T01:23:36.929Z,99050.72
2022-09-16T01:26:35.442Z,99046.78
2022-09-16T01:29:44.198Z,99043.78
2022-09-16T01:32:20.889Z,99052.06
2022-09-16T01:34:57.307Z,99046.72
2022-09-16T01:37:33.759Z,99038.63
2022-09-16T01:40:24.104Z,99048.53
2022-09-16T01:43:04.061Z,99047.81
2022-09-16T01:45:39.637Z,99035.13
2022-09-16T01:48:36.896Z,99046.34
2022-09-16T01:51:06.143Z,99040.00
2022-09-16T01:53:47.665Z,99044.84
2022-09-16T01:56:23.114Z,99041.22
2022-09-16T01:58:56.428Z,99045.16
2022-09-16T02:01:34.232Z,99045.69
2022-09-16T02:04:10.399Z,99037.72
2022-09-16T02:06:39.596Z,99029.59
2022-09-16T02:09:29.137Z,99037.84
2022-09-16T02:11:59.007Z,99048.47
2022-09-16T02:14:30.710Z,99049.81
2022-09-16T02:17:03.794Z,99048.19
2022-09-16T02:19:39.901Z,99047.19
2022-09-16T02:22:16.792Z,99054.63
2022-09-16T02:24:46.920Z,99055.31
2022-09-16T02:27:19.973Z,99058.19
2022-09-16T02:29:56.624Z,99068.69
2022-09-16T02:32:26.178Z,99067.75
2022-09-16T02:34:54.619Z,99074.78
2022-09-16T02:37:26.629Z,99082.72
2022-09-16T02:39:57.841Z,99069.47
2022-09-16T02:42:25.449Z,99075.75
2022-09-16T02:44:53.163Z,99084.56
2022-09-16T02:47:26.716Z,99081.16
2022-09-16T02:49:59.832Z,99081.03
2022-09-16T02:52:57.403Z,99074.16
2022-09-16T02:55:46.536Z,99081.38
2022-09-16T02:58:14.144Z,99083.25
2022-09-16T03:00:46.587Z,99087.53
2022-09-16T03:03:14.517Z,99088.75
2022-09-16T03:06:04.042Z,99083.28
2022-09-16T03:08:32.544Z,99084.72
2022-09-16T03:11:31.024Z,99089.88
2022-09-16T03:14:19.212Z,99080.19
2022-09-16T03:17:20.500Z,99082.25
2022-09-16T03:20:07.404Z,99083.28
2022-09-16T03:22:53.868Z,99090.19
2022-09-16T03:25:43.316Z,99093.59
2022-09-16T03:28:15.981Z,99094.06
2022-09-16T03:30:50.082Z,99093.50
2022-09-16T03:33:34.487Z,99092.44
2022-09-16T03:36:05.233Z,99090.09
2022-09-16T03:38:34.420Z,99080.19
2022-09-16T03:41:06.498Z,99096.59
2022-09-16T03:43:34.027Z,99106.06
2022-09-16T03:46:01.748Z,99098.91
2022-09-16T03:48:29.107Z,99103.28
2022-09-16T03:51:02.597Z,99106.00
2022-09-16T03:53:30.991Z,99116.03
2022-09-16T03:55:58.268Z,99099.09
2022-09-16T03:58:25.580Z,99098.91
2022-09-16T04:00:53.919Z,99104.28
2022-09-16T04:03:21.468Z,99109.78
2022-09-16T04:05:55.339Z,99107.69
2022-09-16T04:08:23.557Z,99109.97
2022-09-16T04:10:59.353Z,99109.47
2022-09-16T04:13:29.667Z,99112.75
2022-09-16T04:15:57.128Z,99105.28
2022-09-16T04:18:24.484Z,99094.59
2022-09-16T04:20:59.851Z,99108.56
2022-09-16T04:23:28.239Z,99101.56
2022-09-16T04:26:02.374Z,99111.31
2022-09-16T04:28:31.111Z,99110.88
2022-09-16T04:31:03.073Z,99113.97
2022-09-16T04:33:31.506Z,99111.84
2022-09-16T04:36:16.750Z,99114.69
2022-09-16T04:38:45.458Z,99112.28
2022-09-16T04:41:26.095Z,99118.38
2022-09-16T04:43:56.207Z,99118.28
2022-09-16T04:46:25.326Z,99118.63
2022-09-16T04:48:54.102Z,99118.47
2022-09-16T04:51:22.499Z,99114.38
2022-09-16T04:53:50.540Z,99107.44
2022-09-16T04:56:20.415Z,99116.91
2022-09-16T04:58:50.083Z,99117.78
2022-09-16T05:01:19.948Z,99124.00
2022-09-16T05:03:50.473Z,99127.66
2022-09-16T05:06:20.947Z,99113.81
2022-09-16T05:08:49.515Z,99106.28
2022-09-16T05:11:20.084Z,99115.03
2022-09-16T05:13:47.693Z,99119.09
2022-09-16T05:16:17.293Z,99117.53
2022-09-16T05:18:46.323Z,99130.16
2022-09-16T05:21:15.874Z,99131.22
2022-09-16T05:23:46.699Z,99132.84
2022-09-16T05:26:16.687Z,99137.34
2022-09-16T05:28:43.972Z,99135.56
2022-09-16T05:31:16.323Z,99141.75
2022-09-16T05:33:46.069Z,99153.59
2022-09-16T05:36:17.888Z,99146.75
2022-09-16T05:39:04.763Z,99145.78
2022-09-16T05:41:32.982Z,99137.56
2022-09-16T05:44:01.331Z,99148.37
2022-09-16T05:46:29.025Z,99150.81
2022-09-16T05:48:56.666Z,99153.28
2022-09-16T05:51:25.734Z,99155.37
2022-09-16T05:53:53.698Z,99143.16
2022-09-16T05:56:25.685Z,99135.19
2022-09-16T05:58:54.649Z,99142.13
2022-09-16T06:01:27.754Z,99137.16
2022-09-16T06:03:55.407Z,99142.44
2022-09-16T06:06:29.829Z,99148.28
2022-09-16T06:08:59.665Z,99146.09
2022-09-16T06:11:28.358Z,99147.81
2022-09-16T06:14:01.465Z,99151.88
2022-09-16T06:16:32.898Z,99152.91
2022-09-16T06:19:02.014Z,99136.94
2022-09-16T06:21:29.985Z,99149.13
2022-09-16T06:23:57.835Z,99146.72
2022-09-16T06:26:26.574Z,99155.13
2022-09-16T06:28:54.747Z,99141.13
2022-09-16T06:31:24.373Z,99139.44
2022-09-16T06:33:52.836Z,99136.44
2022-09-16T06:36:28.103Z,99135.56
2022-09-16T06:38:55.709Z,99124.25
2022-09-16T06:41:24.105Z,99134.16
2022-09-16T06:43:51.998Z,99135.34
2022-09-16T06:46:22.910Z,99144.84
2022-09-16T06:48:52.655Z,99142.13
2022-09-16T06:51:22.818Z,99145.16
2022-09-16T06:53:51.280Z,99146.28
2022-09-16T06:56:20.445Z,99142.56
2022-09-16T06:58:55.625Z,99140.00
2022-09-16T07:01:28.414Z,99149.72
2022-09-16T07:03:57.577Z,99144.38
2022-09-16T07:06:49.549Z,99153.31
2022-09-16T07:09:15.276Z,99164.44
2022-09-16T07:11:42.836Z,99157.41
2022-09-16T07:14:10.237Z,99162.06
2022-09-16T07:16:37.646Z,99166.50
2022-09-16T07:19:05.331Z,99159.50
2022-09-16T07:21:32.942Z,99166.53
2022-09-16T07:24:02.557Z,99168.03
2022-09-16T07:26:32.331Z,99172.38
2022-09-16T07:29:01.234Z,99175.88
2022-09-16T07:31:31.053Z,99178.91
2022-09-16T07:34:04.035Z,99180.22
2022-09-16T07:36:38.094Z,99182.09
2022-09-16T07:39:06.302Z,99172.63
2022-09-16T07:41:36.597Z,99178.13
2022-09-16T07:44:05.401Z,99191.44
2022-09-16T07:46:34.915Z,99194.84
2022-09-16T07:49:06.413Z,99195.63
2022-09-16T07:51:35.030Z,99199.38
2022-09-16T07:54:07.473Z,99195.16
2022-09-16T07:57:01.323Z,99194.06
2022-09-16T07:59:28.656Z,99189.88
2022-09-16T08:01:56.374Z,99191.72
2022-09-16T08:04:23.984Z,99199.13
2022-09-16T08:06:51.417Z,99200.00
2022-09-16T08:12:07.949Z,99206.34
2022-09-16T08:14:35.383Z,99216.44
2022-09-16T08:17:03.387Z,99215.59
2022-09-16T08:19:30.983Z,99203.25
2022-09-16T08:21:58.291Z,99204.69
2022-09-16T08:24:25.599Z,99199.03
2022-09-16T08:26:53.767Z,99195.84
2022-09-16T08:29:22.485Z,99195.00
2022-09-16T08:31:49.830Z,99195.22
2022-09-16T08:34:17.699Z,99197.12
2022-09-16T08:36:45.003Z,99189.97
2022-09-16T08:39:12.274Z,99191.88
2022-09-16T08:41:52.534Z,99200.44
2022-09-16T08:44:34.648Z,99205.72
2022-09-16T08:47:06.305Z,99200.91
2022-09-16T08:49:46.571Z,99196.25
2022-09-16T08:52:33.481Z,99190.09
2022-09-16T08:55:08.193Z,99201.37
2022-09-16T08:57:43.082Z,99203.78
2022-09-16T09:00:16.748Z,99216.72
2022-09-16T09:03:14.721Z,99226.59
2022-09-16T09:05:53.620Z,99224.00
2022-09-16T09:08:43.264Z,99219.72
2022-09-16T09:11:17.436Z,99219.25
2022-09-16T09:13:54.353Z,99212.56
2022-09-16T09:16:31.152Z,99204.94
2022-09-16T09:19:28.651Z,99200.22
2022-09-16T09:22:22.304Z,99192.94
2022-09-16T09:25:21.949Z,99195.47
2022-09-16T09:27:58.985Z,99194.47
2022-09-16T09:30:28.047Z,99187.22
2022-09-16T09:33:45.011Z,99188.94
2022-09-16T09:36:31.412Z,99199.75
2022-09-16T09:39:02.619Z,99197.97
2022-09-16T09:41:34.040Z,99196.34
2022-09-16T09:44:35.278Z,99203.09
2022-09-16T09:47:08.197Z,99214.00
2022-09-16T09:49:48.122Z,99204.72
2022-09-16T09:52:33.963Z,99196.72
2022-09-16T09:55:16.164Z,99187.66
2022-09-16T09:58:27.218Z,99180.78
2022-09-16T10:00:57.672Z,99181.19
2022-09-16T10:03:27.043Z,99175.22
2022-09-16T10:05:54.713Z,99176.81
2022-09-16T10:08:43.702Z,99173.16
2022-09-16T10:11:26.307Z,99178.28
2022-09-16T10:13:55.363Z,99182.03
2022-09-16T10:16:26.825Z,99188.25
2022-09-16T10:19:07.043Z,99180.41
2022-09-16T10:21:46.955Z,99188.78
2022-09-16T10:24:35.263Z,99183.69
2022-09-16T10:27:20.978Z,99189.72
2022-09-16T10:29:48.978Z,99182.91
2022-09-16T10:32:18.375Z,99184.19
2022-09-16T10:34:46.619Z,99181.44
2022-09-16T10:37:13.843Z,99182.47
2022-09-16T10:39:45.071Z,99180.06
2022-09-16T10:42:30.797Z,99179.41
2022-09-16T10:45:04.869Z,99182.97
2022-09-16T10:47:33.888Z,99186.37
2022-09-16T10:50:06.595Z,99178.37
2022-09-16T10:52:45.335Z,99180.31
2022-09-16T10:55:27.167Z,99193.78
2022-09-16T10:58:07.628Z,99189.62
2022-09-16T11:00:58.238Z,99185.09
2022-09-16T11:03:50.079Z,99189.28
2022-09-16T11:06:20.432Z,99196.34
2022-09-16T11:09:11.240Z,99195.28
2022-09-16T11:11:54.388Z,99194.59
2022-09-16T11:14:33.951Z,99193.37
2022-09-16T11:17:38.685Z,99180.78
2022-09-16T11:20:18.051Z,99185.78
2022-09-16T11:22:54.793Z,99187.78
2022-09-16T11:25:40.768Z,99181.03
2022-09-16T11:28:27.076Z,99173.69
2022-09-16T11:31:00.160Z,99162.00
2022-09-16T11:33:42.084Z,99163.00
2022-09-16T11:36:16.497Z,99160.75
2022-09-16T11:39:05.979Z,99155.66
2022-09-16T11:41:50.221Z,99145.84
2022-09-16T11:44:32.979Z,99151.62
2022-09-16T11:47:16.388Z,99148.06
2022-09-16T11:50:16.037Z,99147.13
2022-09-16T11:53:05.356Z,99140.72
2022-09-16T11:55:39.412Z,99138.44
2022-09-16T11:58:32.240Z,99139.69
2022-09-16T12:01:05.988Z,99143.91
2022-09-16T12:03:49.688Z,99146.87
2022-09-16T12:06:23.963Z,99133.56
2022-09-16T12:09:01.086Z,99121.03
2022-09-16T12:11:36.531Z,99126.81
2022-09-16T12:14:09.352Z,99126.91
2022-09-16T12:16:45.415Z,99128.22
2022-09-16T12:19:21.100Z,99132.13
2022-09-16T12:22:01.256Z,99127.03
2022-09-16T12:24:56.053Z,99124.25
2022-09-16T12:27:34.739Z,99118.56
2022-09-16T12:30:04.323Z,99120.56
2022-09-16T12:33:09.225Z,99127.03
2022-09-16T12:35:39.821Z,99134.50
2022-09-16T12:38:17.400Z,99127.50
2022-09-16T12:41:03.897Z,99117.37
2022-09-16T12:43:59.025Z,99109.22
2022-09-16T12:46:44.786Z,99109.63
2022-09-16T12:49:44.349Z,99103.56
2022-09-16T12:52:46.103Z,99099.19
2022-09-16T12:55:40.628Z,99091.81
2022-09-16T12:58:38.872Z,99103.25
2022-09-16T13:01:06.048Z,99095.47
2022-09-16T13:06:13.618Z,99091.81
2022-09-16T13:08:41.224Z,99084.31
2022-09-16T13:14:22.135Z,99087.44
2022-09-16T13:16:55.735Z,99091.81
2022-09-16T13:19:39.692Z,99088.03
2022-09-16T13:22:24.555Z,99082.72
2022-09-16T13:25:09.259Z,99086.16
2022-09-16T13:27:40.884Z,99088.19
2022-09-16T13:30:08.336Z,99087.84
2022-09-16T13:32:50.474Z,99091.28
2022-09-16T13:35:18.107Z,99079.31
2022-09-16T13:37:46.745Z,99083.34
2022-09-16T13:40:26.772Z,99080.94
2022-09-16T13:43:30.729Z,99075.88
2022-09-16T13:46:08.876Z,99077.69
2022-09-16T13:48:47.462Z,99076.19
2022-09-16T13:51:20.273Z,99070.63
2022-09-16T13:53:49.936Z,99067.88
2022-09-16T13:56:34.970Z,99063.09
2022-09-16T13:59:26.972Z,99053.16
2022-09-16T14:02:27.445Z,99056.97
2022-09-16T14:05:20.910Z,99050.91
2022-09-16T14:08:12.059Z,99047.56
2022-09-16T14:11:10.117Z,99048.13
2022-09-16T14:13:45.408Z,99038.22
2022-09-16T14:16:21.122Z,99034.16
2022-09-16T14:18:56.396Z,99038.13
2022-09-16T14:21:24.625Z,99038.53
2022-09-16T14:23:51.958Z,99035.47
2022-09-16T14:26:23.879Z,99041.63
2022-09-16T14:29:01.934Z,99046.84
2022-09-16T14:31:30.975Z,99038.00
2022-09-16T14:34:04.635Z,99043.34
2022-09-16T14:36:36.192Z,99050.66
2022-09-16T14:39:06.730Z,99060.91
2022-09-16T14:41:52.363Z,99045.12
2022-09-16T14:44:19.935Z,99030.31
2022-09-16T14:46:50.708Z,99028.88
2022-09-16T14:49:18.737Z,99023.63
2022-09-16T14:52:23.119Z,99035.28
2022-09-16T14:54:51.819Z,99022.06
2022-09-16T14:57:22.976Z,99020.56
2022-09-16T14:59:52.393Z,99014.47
2022-09-16T15:02:42.559Z,99010.87
2022-09-16T15:05:38.633Z,99016.84
2022-09-16T15:08:27.525Z,99017.87
2022-09-16T15:10:57.715Z,99024.47
2022-09-16T15:13:35.710Z,99023.88
2022-09-16T15:16:12.186Z,99018.03
2022-09-16T15:18:43.762Z,99025.00
2022-09-16T15:21:23.809Z,99024.84
2022-09-16T15:23:52.920Z,99039.44
2022-09-16T15:26:26.067Z,99030.44
2022-09-16T15:28:59.179Z,99030.38
2022-09-16T15:31:40.627Z,99034.97
2022-09-16T15:34:23.779Z,99041.47
2022-09-16T15:36:53.020Z,99039.25
2022-09-16T15:39:30.517Z,99044.38
2022-09-16T15:42:13.631Z,99044.03
2022-09-16T15:44:48.781Z,99052.72
2022-09-16T15:47:29.002Z,99052.41
2022-09-16T15:50:12.423Z,99059.56
2022-09-16T15:53:01.651Z,99060.09
2022-09-16T15:55:36.369Z,99056.78
2022-09-16T15:58:33.673Z,99044.56
2022-09-16T16:01:10.389Z,99042.59
2022-09-16T16:03:50.004Z,99040.72
2022-09-16T16:06:17.376Z,99041.03
2022-09-16T16:08:48.249Z,99036.09
2022-09-16T16:11:20.624Z,99026.37
2022-09-16T16:13:51.438Z,99032.59
2022-09-16T16:16:19.073Z,99023.28
2022-09-16T16:18:46.664Z,99023.78
2022-09-16T16:21:16.385Z,99020.06
2022-09-16T16:23:43.849Z,99019.22
2022-09-16T16:26:11.526Z,99017.34
2022-09-16T16:28:39.108Z,99016.75
2022-09-16T16:31:11.620Z,99012.59
2022-09-16T16:33:44.917Z,99017.47
2022-09-16T16:36:14.169Z,99004.16
2022-09-16T16:38:41.815Z,99004.41
2022-09-16T16:41:09.338Z,98990.34
2022-09-16T16:43:36.648Z,98989.03
2022-09-16T16:46:04.647Z,99004.00
2022-09-16T16:48:31.993Z,99005.88
2022-09-16T16:51:02.296Z,99004.50
2022-09-16T16:53:30.426Z,99003.31
2022-09-16T16:56:04.623Z,99003.19
2022-09-16T16:58:33.027Z,99002.63
2022-09-16T17:01:10.040Z,98993.31
2022-09-16T17:03:37.639Z,99007.56
2022-09-16T17:06:05.238Z,98998.66
2022-09-16T17:08:33.281Z,98989.56
2022-09-16T17:11:16.373Z,99005.44
2022-09-16T17:13:48.530Z,99004.44
2022-09-16T17:16:19.627Z,98994.97
2022-09-16T17:18:47.589Z,98986.50
2022-09-16T17:21:23.939Z,98989.44
2022-09-16T17:23:52.455Z,98982.69
2022-09-16T17:26:21.112Z,98976.34
2022-09-16T17:28:50.718Z,98984.09
2022-09-16T17:31:21.140Z,98991.56
2022-09-16T17:33:48.663Z,98991.62
2022-09-16T17:36:19.560Z,98988.22
2022-09-16T17:38:47.161Z,98986.69
2022-09-16T17:41:17.015Z,98989.16
2022-09-16T17:43:44.388Z,98997.09
2022-09-16T17:46:15.912Z,99006.09
2022-09-16T17:48:43.622Z,99008.94
2022-09-16T17:51:11.210Z,99006.53
2022-09-16T17:53:38.813Z,99010.41
2022-09-16T17:56:08.739Z,99008.53
2022-09-16T17:58:37.065Z,98999.84
2022-09-16T18:01:05.807Z,98998.22
2022-09-16T18:03:33.486Z,99002.69
2022-09-16T18:06:12.925Z,98997.16
2022-09-16T18:08:41.157Z,98990.69
2022-09-16T18:11:10.146Z,98992.75
2022-09-16T18:13:37.794Z,98987.00
2022-09-16T18:16:07.959Z,98995.81
2022-09-16T18:18:36.741Z,98992.66
2022-09-16T18:21:05.522Z,99001.25
2022-09-16T18:23:33.636Z,99008.41
2022-09-16T18:26:06.136Z,99020.19
2022-09-16T18:29:05.268Z,99022.78
2022-09-16T18:31:28.878Z,99023.47
2022-09-16T18:33:56.906Z,99032.47
2022-09-16T18:36:25.933Z,99023.06
2022-09-16T18:38:54.623Z,99013.50
2022-09-16T18:41:24.483Z,99008.00
2022-09-16T18:43:57.358Z,99011.66
2022-09-16T18:46:26.870Z,99009.19
2022-09-16T18:48:54.929Z,98995.66
2022-09-16T18:51:23.301Z,98991.25
2022-09-16T18:53:53.140Z,98988.84
2022-09-16T18:56:22.142Z,98990.41
2022-09-16T18:59:10.005Z,98996.63
2022-09-16T19:01:39.194Z,99007.78
2022-09-16T19:04:09.471Z,99004.75
2022-09-16T19:06:39.123Z,98991.47
2022-09-16T19:09:08.624Z,98986.19
2022-09-16T19:11:36.587Z,98982.16
2022-09-16T19:14:17.810Z,98975.25
2022-09-16T19:16:45.889Z,98981.53
2022-09-16T19:19:14.857Z,99002.44
2022-09-16T19:21:43.292Z,99010.34
2022-09-16T19:24:16.286Z,99013.41
2022-09-16T19:26:44.502Z,99010.44
2022-09-16T19:29:13.330Z,99011.91
2022-09-16T19:31:42.135Z,99012.06
2022-09-16T19:34:09.815Z,99006.94
2022-09-16T19:36:37.808Z,99001.00
2022-09-16T19:39:06.209Z,98993.84
2022-09-16T19:41:35.133Z,98997.94
2022-09-16T19:44:05.378Z,99001.34
2022-09-16T19:46:34.998Z,98997.03
2022-09-16T19:49:05.388Z,98997.28
2022-09-16T19:51:33.144Z,98996.31
2022-09-16T19:54:01.174Z,98999.06
2022-09-16T19:56:31.420Z,99001.06
2022-09-16T19:58:59.287Z,99005.34
2022-09-16T20:01:28.691Z,99001.72
2022-09-16T20:03:56.578Z,99003.84
2022-09-16T20:06:30.735Z,98997.34
2022-09-16T20:09:00.047Z,99006.50
2022-09-16T20:11:31.412Z,99003.34
2022-09-16T20:14:01.085Z,99007.72
2022-09-16T20:16:31.704Z,99009.03
2022-09-16T20:18:59.587Z,99011.03
2022-09-16T20:21:27.271Z,99004.28
2022-09-16T20:23:54.841Z,99005.22
2022-09-16T20:26:22.887Z,98999.72
2022-09-16T20:28:51.912Z,99001.94
2022-09-16T20:31:22.186Z,99003.13
2022-09-16T20:33:50.133Z,99008.47
2022-09-16T20:36:20.571Z,99012.97
2022-09-16T20:38:48.587Z,99006.56
2022-09-16T20:41:17.487Z,99010.75
2022-09-16T20:43:45.977Z,99014.62
2022-09-16T20:46:15.531Z,99019.47
2022-09-16T20:48:44.154Z,99028.38
2022-09-16T20:51:14.530Z,99035.94
2022-09-16T20:53:43.011Z,99038.41
2022-09-16T20:56:15.389Z,99040.56
2022-09-16T20:58:43.253Z,99048.31
2022-09-16T21:01:16.196Z,99053.94
2022-09-16T21:03:44.500Z,99050.09
2022-09-16T21:06:14.595Z,99046.19
2022-09-16T21:08:42.677Z,99046.94
2022-09-16T21:11:15.481Z,99042.53
2022-09-16T21:13:45.107Z,99042.41
2022-09-16T21:16:15.548Z,99039.25
2022-09-16T21:18:43.426Z,99041.09
2022-09-16T21:21:15.194Z,99035.84
2022-09-16T21:23:43.238Z,99041.78
2022-09-16T21:26:25.172Z,99050.91
2022-09-16T21:28:55.167Z,99058.16
2022-09-16T21:31:23.383Z,99070.09
2022-09-16T21:33:51.939Z,99078.87
2022-09-16T21:36:21.299Z,99074.44
2022-09-16T21:38:48.760Z,99080.63
2022-09-16T21:41:21.288Z,99076.00
2022-09-16T21:43:51.316Z,99064.97
2022-09-16T21:46:20.628Z,99066.03
2022-09-16T21:48:48.973Z,99066.34
2022-09-16T21:51:18.699Z,99075.12
2022-09-16T21:53:47.025Z,99063.94
2022-09-16T21:56:19.876Z,99067.06
2022-09-16T21:58:49.431Z,99071.87
2022-09-16T22:01:20.001Z,99070.09
2022-09-16T22:03:53.475Z,99075.53
2022-09-16T22:06:22.295Z,99070.97
2022-09-16T22:08:50.145Z,99072.25
2022-09-16T22:11:18.893Z,99091.34
2022-09-16T22:13:46.653Z,99095.78
2022-09-16T22:16:26.610Z,99096.97
2022-09-16T22:18:57.228Z,99097.84
2022-09-16T22:21:27.202Z,99105.44
2022-09-16T22:23:59.080Z,99102.47
2022-09-16T22:26:27.192Z,99125.63
2022-09-16T22:28:54.577Z,99127.47
2022-09-16T22:31:24.709Z,99123.28
2022-09-16T22:33:53.626Z,99129.56
2022-09-16T22:36:23.651Z,99123.72
2022-09-16T22:38:55.944Z,99124.75
2022-09-16T22:41:24.589Z,99127.88
2022-09-16T22:43:53.467Z,99135.59
2022-09-16T22:46:26.057Z,99135.38
2022-09-16T22:48:55.571Z,99138.19
2022-09-16T22:51:23.172Z,99146.53
2022-09-16T22:53:50.840Z,99139.50
2022-09-16T22:56:21.071Z,99134.53
2022-09-16T22:58:52.775Z,99128.50
2022-09-16T23:01:50.950Z,99127.47
2022-09-16T23:04:19.024Z,99126.41
2022-09-16T23:06:47.298Z,99125.47
2022-09-16T23:09:19.935Z,99128.66
2022-09-16T23:11:47.483Z,99129.22
2022-09-16T23:14:21.599Z,99119.97
2022-09-16T23:16:49.179Z,99116.16
2022-09-16T23:19:16.881Z,99111.97
2022-09-16T23:21:44.203Z,99104.06
2022-09-16T23:24:15.385Z,99102.41
2022-09-16T23:26:42.977Z,99106.69
2022-09-16T23:29:11.927Z,99104.00
2022-09-16T23:31:41.590Z,99085.63
2022-09-16T23:34:19.402Z,99098.38
2022-09-16T23:36:47.658Z,99082.97
2022-09-16T23:39:15.566Z,99075.00
2022-09-16T23:41:43.555Z,99075.28
2022-09-16T23:44:15.596Z,99070.91
2022-09-16T23:46:43.205Z,99058.94
2022-09-16T23:49:11.426Z,99059.28
2022-09-16T23:51:38.962Z,99049.69
2022-09-16T23:54:06.277Z,99039.19
2022-09-16T23:56:33.901Z,99048.97
2022-09-16T23:59:01.340Z,99055.13
